Owensville, IN

7:15 AM CDT on August 27, 2016 (GMT -0500)
Rural Princeton | | Change Station

Elev 436 ft 38.30 °N, 87.59 °W | Updated 3 minutes ago

Mostly Cloudy
Mostly Cloudy
72.5 °F
Feels Like 72.5 °F
N
0.0
Wind Variable Wind from NE
Gusts 0.0 mph

Today
High -- | Low -- °F
--% Chance of Precip.
Yesterday
High -- | Low -- °F
Precip. -- in
Pressure 30.07 in
Visibility 10.0 miles
Clouds Scattered Clouds 6000 ft
Mostly Cloudy 11000 ft
Dew Point 72 °F
Humidity 97%
Rainfall 0.05 in
Snow Depth Not available.
6:16 AM 7:27 PM
Waning Crescent, 25% visible
METAR KEVV 271154Z 03003KT 10SM SCT060 BKN110 23/22 A3008 RMK AO2 SLP181 60014 70014 T02280217 10239 20222 53012
Pressure 30.07 in
Visibility 10.0 miles
Clouds Scattered Clouds 6000 ft
Mostly Cloudy 11000 ft
Dew Point 72 °F
Humidity 97%
Rainfall 0.05 in
Snow Depth Not available.
6:16 AM 7:27 PM
Waning Crescent, 25% visible
METAR KEVV 271154Z 03003KT 10SM SCT060 BKN110 23/22 A3008 RMK AO2 SLP181 60014 70014 T02280217 10239 20222 53012

10-Day Weather Forecast

Almanac

Astronomy

Aug. 27, 2016 Rise Set
Actual Time
Civil Twilight
Nautical Twilight
Astronomical Twilight
Moon
Length of Visible Light
Length of Day
Tomorrow will be .
, % of the Moon is Illuminated

Today's Extremes

State Highs State Lows

Community

WunderPhotos

Upload Photos

1,935,325 photos uploaded!

WunderBlog® & News

Nearby

Air Quality

  Air Quality AQ Index Pollutant
Not available.

Snow Depth

Station Depth Elevation

Earthquake Activity

City Distance Mag. Time & Date
Minimum magnitude displayed is 2.5.

Coastal Water Temperatures

Place Temperature

Stations

Nearby Weather Stations

Station Location Temp. Windchill Dew Point Humidity Wind Precip. Elev Updated Type
                   

Watches & Warnings

There are currently no watches in effect.